Time;durP1;ratioP1;P1;durP2;ratioP2;P2;SDS_P1;SDS_P2;PMS_P1;PMS_P2;Temp;Humidity;BMP_temperature;BMP_pressure;BME280_temperature;BME280_humidity;BME280_pressure;Samples;Min_cycle;Max_cycle;Signal;HPM_P1;HPM_P2
2021/10/24 00:01:21;;;;;;;3.47;3.05;;;23.20;39.50;;;;;;4785354;29;20055;-54
2021/10/24 00:03:49;;;;;;;3.70;3.13;;;23.20;39.50;;;;;;4785337;29;20573;-54
2021/10/24 00:06:16;;;;;;;5.97;2.97;;;23.20;39.60;;;;;;4785430;29;20445;-54
2021/10/24 00:08:43;;;;;;;2.55;2.35;;;23.20;39.60;;;;;;4778438;29;20142;-53
2021/10/24 00:11:10;;;;;;;3.60;2.92;;;23.20;39.60;;;;;;4783632;29;20055;-55
2021/10/24 00:13:38;;;;;;;2.45;2.25;;;23.20;39.60;;;;;;4785135;29;20055;-55
2021/10/24 00:16:05;;;;;;;4.22;3.17;;;23.20;39.60;;;;;;4785008;29;20055;-54
2021/10/24 00:18:32;;;;;;;4.45;2.60;;;23.20;39.60;;;;;;4778248;29;20191;-55
2021/10/24 00:21:00;;;;;;;3.53;2.90;;;23.20;39.60;;;;;;4782501;29;20119;-55
2021/10/24 00:23:27;;;;;;;3.25;2.65;;;23.20;39.60;;;;;;4784784;29;20274;-55
2021/10/24 00:25:54;;;;;;;3.20;2.65;;;23.20;39.60;;;;;;4784304;29;20089;-55
2021/10/24 00:28:21;;;;;;;3.30;2.78;;;23.20;39.60;;;;;;4777840;29;20295;-54
2021/10/24 00:30:51;;;;;;;2.90;2.60;;;23.20;39.60;;;;;;4782456;29;20055;-52
2021/10/24 00:33:19;;;;;;;3.38;2.80;;;23.20;39.60;;;;;;4785078;29;20130;-52
2021/10/24 00:35:46;;;;;;;2.78;2.58;;;23.20;39.60;;;;;;4784717;29;20498;-53
2021/10/24 00:38:14;;;;;;;3.95;3.20;;;23.20;39.60;;;;;;4778872;29;20477;-53
2021/10/24 00:40:41;;;;;;;4.45;2.95;;;23.20;39.60;;;;;;4781923;29;20070;-54
2021/10/24 00:43:08;;;;;;;4.38;3.20;;;23.20;39.60;;;;;;4784291;29;20513;-54
2021/10/24 00:45:35;;;;;;;3.38;2.78;;;23.20;39.60;;;;;;4784673;29;20549;-51
2021/10/24 00:48:03;;;;;;;4.30;3.05;;;23.20;39.60;;;;;;4779157;29;20060;-54
2021/10/24 00:50:30;;;;;;;3.55;3.08;;;23.20;39.60;;;;;;4779009;29;20047;-54
2021/10/24 00:52:58;;;;;;;2.92;2.42;;;23.20;39.60;;;;;;4784054;29;20150;-53
2021/10/24 00:55:25;;;;;;;3.83;2.80;;;23.20;39.60;;;;;;4784359;29;20058;-50
2021/10/24 00:57:54;;;;;;;3.05;2.58;;;23.20;39.60;;;;;;4780896;29;20062;-54
2021/10/24 01:00:21;;;;;;;3.28;2.80;;;23.10;39.60;;;;;;4778733;29;20086;-54
2021/10/24 01:02:48;;;;;;;3.40;2.40;;;23.10;39.60;;;;;;4784140;29;20083;-54
2021/10/24 01:05:16;;;;;;;3.20;2.78;;;23.10;40.20;;;;;;4784012;29;20051;-53
2021/10/24 01:07:46;;;;;;;3.08;2.78;;;23.10;39.60;;;;;;4780278;29;20061;-55
2021/10/24 01:10:15;;;;;;;;;;;23.10;39.60;;;;;;4775286;29;20056;-56
2021/10/24 01:12:45;;;;;;;2.75;2.55;;;23.10;39.60;;;;;;4766264;30;19929;-55
2021/10/24 01:15:12;;;;;;;2.88;2.55;;;23.10;39.70;;;;;;4766628;30;20143;-54
2021/10/24 01:17:39;;;;;;;2.92;2.60;;;23.10;39.70;;;;;;4763361;30;20143;-54
2021/10/24 01:20:08;;;;;;;3.47;3.03;;;23.10;39.70;;;;;;4779013;29;20145;-50
2021/10/24 01:22:37;;;;;;;3.05;2.50;;;23.10;39.70;;;;;;4783903;29;20138;-53
2021/10/24 01:25:07;;;;;;;4.43;2.72;;;23.10;39.70;;;;;;4783498;29;20142;-52
2021/10/24 01:27:36;;;;;;;2.70;2.50;;;23.10;39.70;;;;;;4782481;29;20047;-54
2021/10/24 01:30:05;;;;;;;3.63;2.78;;;23.10;39.60;;;;;;4778545;29;20079;-50
2021/10/24 01:32:32;;;;;;;3.38;2.70;;;23.10;39.70;;;;;;4783769;29;20059;-52
2021/10/24 01:35:00;;;;;;;3.00;2.70;;;23.00;39.60;;;;;;4782424;29;20090;-53
2021/10/24 01:37:35;;;;;;;3.78;2.95;;;23.00;39.60;;;;;;4783128;29;20055;-54
2021/10/24 01:40:05;;;;;;;2.65;2.30;;;23.00;39.70;;;;;;4777162;29;20055;-53
2021/10/24 01:42:33;;;;;;;3.55;2.78;;;23.00;39.70;;;;;;4783541;29;20059;-52
2021/10/24 01:45:07;;;;;;;2.72;2.50;;;23.00;39.70;;;;;;4783431;29;20457;-51
2021/10/24 01:47:35;;;;;;;3.35;2.88;;;23.00;39.70;;;;;;4779547;29;20083;-54
2021/10/24 01:50:02;;;;;;;3.17;2.35;;;23.00;39.70;;;;;;4777891;29;20509;-51
2021/10/24 01:52:29;;;;;;;3.80;2.80;;;23.00;39.80;;;;;;4784096;29;20135;-50
2021/10/24 01:54:56;;;;;;;2.97;2.70;;;23.00;39.80;;;;;;4783071;29;20054;-49
2021/10/24 01:57:24;;;;;;;3.47;2.85;;;23.00;39.80;;;;;;4783697;29;20130;-51
2021/10/24 01:59:51;;;;;;;3.40;2.50;;;23.00;39.70;;;;;;4774425;29;20070;-51
2021/10/24 02:02:18;;;;;;;3.53;2.85;;;23.10;39.80;;;;;;4783447;29;20071;-54
2021/10/24 02:04:45;;;;;;;2.78;2.30;;;23.10;39.70;;;;;;4783504;29;20082;-54
2021/10/24 02:07:12;;;;;;;3.20;2.70;;;23.00;39.70;;;;;;4783150;29;20118;-51
2021/10/24 02:09:39;;;;;;;3.00;2.70;;;23.00;39.70;;;;;;4775289;29;20090;-51
2021/10/24 02:12:06;;;;;;;3.17;2.60;;;23.00;39.80;;;;;;4781823;30;20050;-54
2021/10/24 02:14:33;;;;;;;2.78;2.45;;;23.00;39.70;;;;;;4783341;29;20110;-54
2021/10/24 02:17:00;;;;;;;2.85;2.30;;;23.00;39.70;;;;;;4783290;29;20495;-50
2021/10/24 02:19:28;;;;;;;3.42;2.58;;;23.00;39.80;;;;;;4770713;29;20059;-53
2021/10/24 02:21:56;;;;;;;2.53;2.33;;;23.00;39.80;;;;;;4765622;30;20164;-52
2021/10/24 02:24:23;;;;;;;2.78;2.35;;;22.90;39.80;;;;;;4764695;30;20055;-52
2021/10/24 02:26:50;;;;;;;2.75;2.50;;;22.90;39.80;;;;;;4765624;30;20146;-52
2021/10/24 02:29:17;;;;;;;3.88;2.60;;;22.90;39.80;;;;;;4769404;29;20057;-54
2021/10/24 02:31:44;;;;;;;3.00;2.70;;;22.90;39.80;;;;;;4783515;29;20051;-52
2021/10/24 02:34:11;;;;;;;2.85;2.40;;;22.90;39.80;;;;;;4783076;29;20058;-51
2021/10/24 02:36:38;;;;;;;3.88;2.50;;;22.90;39.80;;;;;;4782987;29;20056;-55
2021/10/24 02:39:05;;;;;;;2.55;2.22;;;22.90;39.80;;;;;;4774348;29;20052;-55
2021/10/24 02:41:32;;;;;;;2.58;2.38;;;22.90;39.90;;;;;;4782882;29;20055;-53
2021/10/24 02:43:59;;;;;;;2.28;2.08;;;22.90;39.80;;;;;;4781862;29;20142;-51
2021/10/24 02:46:26;;;;;;;3.03;2.50;;;22.90;39.80;;;;;;4783213;29;20079;-51
2021/10/24 02:48:54;;;;;;;2.55;2.15;;;22.90;39.80;;;;;;4774437;29;20047;-52
2021/10/24 02:51:21;;;;;;;2.40;2.17;;;22.90;39.80;;;;;;4782346;29;20055;-52
2021/10/24 02:53:48;;;;;;;2.92;2.10;;;22.90;39.90;;;;;;4782904;29;20138;-50
2021/10/24 02:56:15;;;;;;;3.17;2.70;;;22.90;39.80;;;;;;4783286;29;20055;-53
2021/10/24 02:58:42;;;;;;;2.33;1.95;;;22.90;39.80;;;;;;4776601;29;20142;-54
2021/10/24 03:01:09;;;;;;;2.58;2.38;;;22.90;39.80;;;;;;4780853;29;20150;-54
2021/10/24 03:03:36;;;;;;;3.00;2.10;;;22.90;40.30;;;;;;4781578;29;20056;-51
2021/10/24 03:06:04;;;;;;;2.92;2.53;;;22.90;39.80;;;;;;4783054;29;20055;-51
2021/10/24 03:08:31;;;;;;;2.90;2.60;;;22.90;39.80;;;;;;4776846;29;20972;-52
2021/10/24 03:10:58;;;;;;;3.45;2.50;;;22.90;39.80;;;;;;4779567;29;20081;-55
2021/10/24 03:13:25;;;;;;;3.13;2.30;;;22.80;39.80;;;;;;4781411;30;20066;-54
2021/10/24 03:15:53;;;;;;;2.60;2.40;;;22.80;39.80;;;;;;4782998;29;20059;-51
2021/10/24 03:18:21;;;;;;;2.10;1.90;;;22.80;39.80;;;;;;4776275;29;20087;-54
2021/10/24 03:20:48;;;;;;;3.22;2.78;;;22.80;39.80;;;;;;4780673;29;20052;-51
2021/10/24 03:23:15;;;;;;;2.15;1.95;;;22.80;39.80;;;;;;4783476;29;20505;-50
2021/10/24 03:25:43;;;;;;;2.70;2.25;;;22.80;39.80;;;;;;4785900;29;20066;-52
2021/10/24 03:28:10;;;;;;;2.97;2.13;;;22.90;39.80;;;;;;4780127;29;20063;-54
2021/10/24 03:30:37;;;;;;;2.70;2.38;;;22.80;39.80;;;;;;4782643;29;20057;-51
2021/10/24 03:33:04;;;;;;;2.35;2.15;;;22.80;39.80;;;;;;4786010;29;20051;-55
2021/10/24 03:35:31;;;;;;;2.67;2.03;;;22.90;39.90;;;;;;4785459;29;20518;-52
2021/10/24 03:37:59;;;;;;;2.75;2.33;;;22.80;39.80;;;;;;4782187;29;20058;-53
2021/10/24 03:40:26;;;;;;;2.22;2.00;;;22.80;39.80;;;;;;4781211;29;20073;-54
2021/10/24 03:42:53;;;;;;;3.00;2.10;;;22.80;39.80;;;;;;4784607;30;20167;-49
2021/10/24 03:45:20;;;;;;;2.40;1.65;;;22.80;39.80;;;;;;4785574;29;20130;-53
2021/10/24 03:47:47;;;;;;;1.85;1.73;;;22.80;39.80;;;;;;4780933;29;20087;-53
2021/10/24 03:50:14;;;;;;;3.00;2.55;;;22.80;39.90;;;;;;4781017;29;20074;-51
2021/10/24 03:52:41;;;;;;;3.25;2.30;;;22.80;39.90;;;;;;4785443;29;20091;-54
2021/10/24 03:55:12;;;;;;;2.58;2.08;;;22.80;39.90;;;;;;4785224;29;20737;-50
2021/10/24 03:57:40;;;;;;;2.05;1.95;;;22.80;39.90;;;;;;4780892;29;20059;-54
2021/10/24 04:00:09;;;;;;;2.20;2.00;;;22.80;39.90;;;;;;4779509;29;20509;-50
2021/10/24 04:03:00;;;;;;;2.47;2.17;;;22.80;39.90;;;;;;4785248;29;20557;-49
2021/10/24 04:05:28;;;;;;;2.53;1.80;;;22.70;39.90;;;;;;4784831;29;20055;-50
2021/10/24 04:07:56;;;;;;;2.35;2.15;;;22.70;39.90;;;;;;4779545;29;20175;-51
2021/10/24 04:10:25;;;;;;;5.60;1.90;;;22.70;39.90;;;;;;4780607;29;20453;-54
2021/10/24 04:12:53;;;;;;;3.33;2.50;;;22.70;39.90;;;;;;4785005;29;20138;-55
2021/10/24 04:15:21;;;;;;;2.40;2.13;;;22.70;39.90;;;;;;4785410;29;20069;-53
2021/10/24 04:17:49;;;;;;;2.05;1.77;;;22.70;39.90;;;;;;4781436;29;20243;-52
2021/10/24 04:20:19;;;;;;;1.92;1.73;;;22.80;39.90;;;;;;4779767;29;20069;-54
2021/10/24 04:22:48;;;;;;;2.35;2.15;;;22.80;39.90;;;;;;4784904;29;20090;-54
2021/10/24 04:25:16;;;;;;;1.95;1.70;;;22.80;39.90;;;;;;4784750;29;20047;-55
2021/10/24 04:27:43;;;;;;;2.80;2.03;;;22.80;39.90;;;;;;4781645;29;20059;-54
2021/10/24 04:30:11;;;;;;;2.17;1.98;;;22.70;39.80;;;;;;4778005;29;20055;-54
2021/10/24 04:32:41;;;;;;;2.65;1.75;;;22.80;39.90;;;;;;4784989;29;20243;-55
2021/10/24 04:35:09;;;;;;;2.40;2.08;;;22.80;39.80;;;;;;4784457;29;20130;-52
2021/10/24 04:37:36;;;;;;;2.22;1.90;;;22.70;39.80;;;;;;4781153;29;20083;-52
2021/10/24 04:40:06;;;;;;;3.00;1.80;;;22.70;39.80;;;;;;4779822;29;20509;-53
2021/10/24 04:42:34;;;;;;;2.23;2.00;;;22.80;39.80;;;;;;4784377;29;20155;-55
2021/10/24 04:45:04;;;;;;;2.35;1.63;;;22.80;39.80;;;;;;4784586;29;20062;-54
2021/10/24 04:47:31;;;;;;;1.92;1.70;;;22.70;39.80;;;;;;4783483;29;20493;-53
2021/10/24 04:49:59;;;;;;;1.42;1.33;;;22.70;39.80;;;;;;4778305;29;20058;-55
2021/10/24 04:52:26;;;;;;;2.60;1.85;;;22.70;39.80;;;;;;4783284;30;20123;-53
2021/10/24 04:54:53;;;;;;;2.30;1.80;;;22.70;39.80;;;;;;4784275;29;20094;-54
2021/10/24 04:57:21;;;;;;;2.85;1.70;;;22.70;39.80;;;;;;4784485;29;20143;-55
2021/10/24 04:59:48;;;;;;;2.38;2.15;;;22.70;39.90;;;;;;4770507;29;20503;-51
2021/10/24 05:02:15;;;;;;;2.72;2.08;;;22.70;39.80;;;;;;4781573;30;20075;-55
2021/10/24 05:04:42;;;;;;;1.60;1.50;;;22.70;39.80;;;;;;4783145;30;20078;-53
2021/10/24 05:07:09;;;;;;;1.80;1.67;;;22.70;39.70;;;;;;4784048;29;20059;-52
2021/10/24 05:09:36;;;;;;;2.80;1.75;;;22.70;39.40;;;;;;4775984;29;20505;-55
2021/10/24 05:12:04;;;;;;;1.88;1.77;;;22.70;39.10;;;;;;4783738;29;20582;-54
2021/10/24 05:14:31;;;;;;;1.75;1.65;;;22.80;39.00;;;;;;4784072;29;20094;-54
2021/10/24 05:16:58;;;;;;;1.90;1.70;;;22.70;38.80;;;;;;4784043;29;20585;-52
2021/10/24 05:19:25;;;;;;;2.00;1.83;;;22.70;38.70;;;;;;4775305;29;20094;-50
2021/10/24 05:21:52;;;;;;;3.08;1.95;;;22.70;38.50;;;;;;4783861;29;20059;-53
2021/10/24 05:24:19;;;;;;;1.75;1.65;;;22.70;38.50;;;;;;4783618;29;20468;-54
2021/10/24 05:26:46;;;;;;;2.00;1.80;;;22.70;38.60;;;;;;4782728;30;20085;-53
2021/10/24 05:29:14;;;;;;;2.10;1.90;;;22.70;38.60;;;;;;4774184;29;20058;-55
2021/10/24 05:31:41;;;;;;;2.22;2.03;;;22.70;38.70;;;;;;4783553;29;20150;-54
2021/10/24 05:34:08;;;;;;;1.77;1.67;;;22.70;38.70;;;;;;4783891;29;20821;-51
2021/10/24 05:36:35;;;;;;;1.90;1.70;;;22.70;38.70;;;;;;4783739;29;20055;-51
2021/10/24 05:39:02;;;;;;;1.60;1.50;;;22.70;38.70;;;;;;4775840;29;20146;-53
2021/10/24 05:41:31;;;;;;;1.90;1.75;;;22.70;38.70;;;;;;4783570;29;20480;-50
2021/10/24 05:43:59;;;;;;;2.53;1.90;;;22.70;38.70;;;;;;4783579;29;20051;-54
2021/10/24 05:46:26;;;;;;;2.08;1.90;;;22.70;38.70;;;;;;4783266;29;20417;-51
2021/10/24 05:48:53;;;;;;;1.45;1.30;;;22.70;38.60;;;;;;4774399;29;20502;-53
2021/10/24 05:51:20;;;;;;;2.17;1.98;;;22.70;38.60;;;;;;4783858;29;20182;-53
2021/10/24 05:53:47;;;;;;;1.55;1.33;;;22.70;38.50;;;;;;4783349;29;20055;-54
2021/10/24 05:56:15;;;;;;;2.17;1.90;;;22.70;38.50;;;;;;4783398;29;20468;-53
2021/10/24 05:58:42;;;;;;;2.25;1.83;;;22.70;38.40;;;;;;4777567;29;20051;-54
2021/10/24 06:01:10;;;;;;;1.55;1.45;;;22.70;38.40;;;;;;4780758;29;20047;-54
2021/10/24 06:03:37;;;;;;;1.50;1.40;;;22.70;38.30;;;;;;4783389;29;20051;-53
2021/10/24 06:06:05;;;;;;;2.13;1.83;;;22.70;38.20;;;;;;4783231;29;20057;-55
2021/10/24 06:08:33;;;;;;;2.15;1.65;;;22.70;38.20;;;;;;4776790;29;20534;-51
2021/10/24 06:11:13;;;;;;;1.55;1.42;;;22.70;38.20;;;;;;4780492;29;20051;-50
2021/10/24 06:13:42;;;;;;;1.67;1.58;;;22.70;38.70;;;;;;4783000;29;20064;-51
2021/10/24 06:16:09;;;;;;;1.63;1.52;;;22.70;38.20;;;;;;4783689;29;20087;-51
2021/10/24 06:18:38;;;;;;;1.92;1.58;;;22.70;38.10;;;;;;4777287;29;20057;-53
2021/10/24 06:21:06;;;;;;;1.63;1.52;;;22.70;38.00;;;;;;4780812;29;20597;-50
2021/10/24 06:23:33;;;;;;;2.63;2.22;;;22.80;38.00;;;;;;4782757;29;20055;-50
2021/10/24 06:26:01;;;;;;;2.63;2.22;;;22.80;37.90;;;;;;4783374;29;20077;-54
2021/10/24 06:28:29;;;;;;;2.13;1.92;;;22.80;37.80;;;;;;4777439;29;20145;-54
2021/10/24 06:30:56;;;;;;;3.40;3.10;;;22.80;37.70;;;;;;4780340;29;20089;-54
2021/10/24 06:33:23;;;;;;;3.20;2.60;;;22.80;37.70;;;;;;4783036;29;20585;-53
2021/10/24 06:35:50;;;;;;;3.15;2.70;;;22.80;37.70;;;;;;4783086;29;20051;-54
2021/10/24 06:38:19;;;;;;;2.88;2.47;;;22.90;37.70;;;;;;4773599;29;20124;-52
2021/10/24 06:40:47;;;;;;;4.03;2.80;;;22.90;37.70;;;;;;4779486;29;20141;-55
2021/10/24 06:43:14;;;;;;;3.97;2.78;;;22.90;37.60;;;;;;4782694;29;20056;-53
2021/10/24 06:45:44;;;;;;;4.00;3.50;;;22.90;37.60;;;;;;4782986;29;20083;-54
2021/10/24 06:48:13;;;;;;;4.75;3.38;;;22.90;37.60;;;;;;4779118;29;20154;-54
2021/10/24 06:50:40;;;;;;;3.90;3.50;;;22.90;37.60;;;;;;4780359;29;20047;-50
2021/10/24 06:53:08;;;;;;;3.15;2.85;;;22.90;37.60;;;;;;4783149;29;20179;-57
2021/10/24 06:55:35;;;;;;;5.13;3.58;;;22.90;37.50;;;;;;4782958;29;20059;-54
2021/10/24 06:58:02;;;;;;;4.32;3.72;;;22.90;37.50;;;;;;4782135;29;20134;-53
2021/10/24 07:00:30;;;;;;;4.15;3.65;;;22.90;37.50;;;;;;4781147;29;20150;-53
2021/10/24 07:02:58;;;;;;;3.95;3.55;;;22.90;38.00;;;;;;4785924;29;20512;-52
2021/10/24 07:05:26;;;;;;;4.15;3.55;;;23.00;37.40;;;;;;4785216;29;20092;-54
2021/10/24 07:07:53;;;;;;;4.55;3.92;;;23.00;37.40;;;;;;4782509;29;20138;-55
2021/10/24 07:10:21;;;;;;;3.80;3.42;;;23.00;37.40;;;;;;4780913;29;20061;-55
2021/10/24 07:12:52;;;;;;;4.72;3.72;;;23.00;37.40;;;;;;4786384;29;20138;-54
2021/10/24 07:15:21;;;;;;;3.92;3.53;;;23.00;37.30;;;;;;4786043;29;20134;-54
2021/10/24 07:17:49;;;;;;;4.22;3.40;;;23.10;37.30;;;;;;4782317;29;20051;-55
2021/10/24 07:20:16;;;;;;;4.40;3.92;;;23.10;37.30;;;;;;4780959;29;20176;-50
2021/10/24 07:22:44;;;;;;;3.75;3.45;;;23.10;37.30;;;;;;4785935;29;20059;-55
2021/10/24 07:25:12;;;;;;;4.80;4.28;;;23.10;37.30;;;;;;4769571;30;20055;-55
2021/10/24 07:27:40;;;;;;;4.32;3.67;;;23.20;37.30;;;;;;4781856;29;20514;-55
2021/10/24 07:30:08;;;;;;;4.00;3.60;;;23.20;37.20;;;;;;4781721;29;20100;-53
2021/10/24 07:32:36;;;;;;;4.38;3.85;;;23.20;37.20;;;;;;4786024;29;20059;-55
2021/10/24 07:35:05;;;;;;;4.43;4.03;;;23.20;37.10;;;;;;4785549;29;20536;-55
2021/10/24 07:37:32;;;;;;;5.13;4.50;;;23.30;37.10;;;;;;4784464;29;20072;-54
2021/10/24 07:40:00;;;;;;;6.35;3.95;;;23.30;37.00;;;;;;4780757;29;20411;-51
2021/10/24 07:42:27;;;;;;;4.55;3.85;;;23.30;37.00;;;;;;4785365;29;20062;-54
2021/10/24 07:44:57;;;;;;;4.93;3.95;;;23.30;36.90;;;;;;4785442;29;20589;-53
2021/10/24 07:47:25;;;;;;;6.05;4.35;;;23.30;36.90;;;;;;4785073;29;20055;-56
2021/10/24 07:49:52;;;;;;;4.57;4.05;;;23.40;36.90;;;;;;4776956;29;20057;-54
2021/10/24 07:52:19;;;;;;;3.95;3.55;;;23.40;36.90;;;;;;4785643;29;20051;-51
2021/10/24 07:54:47;;;;;;;4.38;3.95;;;23.40;36.90;;;;;;4785381;29;20051;-54
2021/10/24 07:57:14;;;;;;;4.93;3.88;;;23.40;36.80;;;;;;4785390;29;20061;-54
2021/10/24 07:59:41;;;;;;;4.10;3.70;;;23.40;36.90;;;;;;4776532;29;20055;-55
2021/10/24 08:02:09;;;;;;;4.70;3.55;;;23.50;36.90;;;;;;4785507;29;20142;-53
2021/10/24 08:04:37;;;;;;;4.60;3.90;;;23.40;36.80;;;;;;4785256;29;20070;-55
2021/10/24 08:07:05;;;;;;;3.92;3.53;;;23.50;36.90;;;;;;4783875;30;20138;-55
2021/10/24 08:09:33;;;;;;;4.10;3.40;;;23.50;36.80;;;;;;4776501;29;20471;-53
2021/10/24 08:12:01;;;;;;;4.13;3.72;;;23.50;36.80;;;;;;4785443;29;20128;-55
2021/10/24 08:14:28;;;;;;;4.25;3.50;;;23.50;36.80;;;;;;4784783;29;20053;-53
2021/10/24 08:16:56;;;;;;;4.93;3.90;;;23.60;36.80;;;;;;4785301;29;20054;-55
2021/10/24 08:19:23;;;;;;;4.28;3.78;;;23.60;36.70;;;;;;4775496;29;20082;-57
2021/10/24 08:21:51;;;;;;;4.05;3.55;;;23.60;36.70;;;;;;4785150;29;20083;-53
2021/10/24 08:24:19;;;;;;;4.00;3.33;;;23.60;36.60;;;;;;4784887;29;20079;-55
2021/10/24 08:26:48;;;;;;;5.82;3.97;;;23.60;36.60;;;;;;4784934;29;20057;-52
2021/10/24 08:29:16;;;;;;;5.03;3.55;;;23.60;36.60;;;;;;4776929;29;20138;-54
2021/10/24 08:31:49;;;;;;;3.75;3.35;;;23.60;36.50;;;;;;4784796;29;20138;-55
2021/10/24 08:34:17;;;;;;;3.97;3.58;;;23.60;36.40;;;;;;4784652;29;20540;-55
2021/10/24 08:36:45;;;;;;;4.10;3.17;;;23.70;36.40;;;;;;4784604;29;20562;-53
2021/10/24 08:39:13;;;;;;;3.65;3.28;;;23.70;36.30;;;;;;4774665;29;20066;-55
2021/10/24 08:41:40;;;;;;;4.05;3.40;;;23.70;36.30;;;;;;4784586;29;20055;-54
2021/10/24 08:44:08;;;;;;;3.22;2.92;;;23.70;36.20;;;;;;4783388;30;20062;-53
2021/10/24 08:46:35;;;;;;;3.38;3.08;;;23.80;36.20;;;;;;4784543;29;20090;-55
2021/10/24 08:49:03;;;;;;;4.05;2.92;;;23.80;36.10;;;;;;4775217;29;20063;-54
2021/10/24 08:51:30;;;;;;;3.28;2.88;;;23.80;36.10;;;;;;4784683;29;20086;-54
2021/10/24 08:53:59;;;;;;;3.40;2.80;;;23.80;36.00;;;;;;4784652;29;20091;-54
2021/10/24 08:56:29;;;;;;;3.83;3.42;;;23.80;36.00;;;;;;4784107;29;20514;-54
2021/10/24 08:58:57;;;;;;;;;;;23.90;35.90;;;;;;4775961;29;20059;-54
2021/10/24 09:01:24;;;;;;;2.80;2.60;;;23.90;35.80;;;;;;4784133;29;19925;-54
2021/10/24 09:04:13;;;;;;;2.50;2.15;;;23.90;35.70;;;;;;4784134;29;20091;-52
2021/10/24 09:06:59;;;;;;;2.85;2.58;;;23.90;35.60;;;;;;4784346;29;20495;-52
2021/10/24 09:09:32;;;;;;;3.08;2.78;;;24.00;35.50;;;;;;4775592;29;20066;-52
2021/10/24 09:12:02;;;;;;;3.00;2.67;;;24.00;35.40;;;;;;4784408;29;20120;-51
2021/10/24 09:14:51;;;;;;;2.75;2.55;;;24.10;35.40;;;;;;4784254;29;20134;-51
2021/10/24 09:17:31;;;;;;;2.83;2.20;;;24.10;35.30;;;;;;4784079;29;20078;-55
2021/10/24 09:20:00;;;;;;;2.57;2.20;;;24.10;35.30;;;;;;4776163;29;20063;-51
2021/10/24 09:22:30;;;;;;;2.45;2.25;;;24.10;35.20;;;;;;4783498;29;20090;-53
2021/10/24 09:25:16;;;;;;;2.22;2.03;;;24.10;35.20;;;;;;4782358;29;20082;-54
2021/10/24 09:27:58;;;;;;;3.85;2.42;;;24.20;35.20;;;;;;4780166;29;20086;-53
2021/10/24 09:30:34;;;;;;;2.05;1.95;;;24.20;35.10;;;;;;4778588;29;20086;-54
2021/10/24 09:33:12;;;;;;;1.83;1.73;;;24.20;35.10;;;;;;4783666;29;20498;-54
2021/10/24 09:35:45;;;;;;;2.05;1.92;;;24.20;35.10;;;;;;4783942;29;20150;-55
2021/10/24 09:38:24;;;;;;;2.45;2.00;;;24.20;35.00;;;;;;4779142;29;20149;-54
2021/10/24 09:40:57;;;;;;;1.85;1.55;;;24.30;35.00;;;;;;4780836;29;20086;-54
2021/10/24 09:43:29;;;;;;;1.80;1.65;;;24.30;35.00;;;;;;4782536;30;20141;-53
2021/10/24 09:46:11;;;;;;;2.42;2.22;;;24.30;34.90;;;;;;4783536;29;20509;-54
2021/10/24 09:48:46;;;;;;;1.88;1.65;;;24.30;34.90;;;;;;4772922;29;20055;-51
2021/10/24 09:51:17;;;;;;;1.63;1.45;;;24.30;34.80;;;;;;4781176;29;20138;-53
2021/10/24 09:53:46;;;;;;;;;;;24.30;34.70;;;;;;4784051;29;20068;-53
2021/10/24 09:56:18;;;;;;;1.23;1.20;;;24.30;34.60;;;;;;4783256;29;20435;-53
2021/10/24 09:58:48;;;;;;;1.92;1.67;;;24.40;34.60;;;;;;4776259;29;20145;-55
2021/10/24 10:01:18;;;;;;;1.70;1.60;;;24.40;34.60;;;;;;4783013;29;20452;-51
2021/10/24 10:03:47;;;;;;;2.22;2.03;;;24.40;34.60;;;;;;4783388;29;20557;-55
2021/10/24 10:06:23;;;;;;;2.00;1.58;;;24.40;34.50;;;;;;4783437;29;20051;-53
2021/10/24 10:08:50;;;;;;;1.95;1.77;;;24.40;34.50;;;;;;4776534;29;20062;-54
2021/10/24 10:11:39;;;;;;;2.20;2.00;;;24.40;34.40;;;;;;4780657;29;20112;-55
2021/10/24 10:14:15;;;;;;;2.03;1.65;;;24.40;34.30;;;;;;4783193;29;20055;-51
2021/10/24 10:16:50;;;;;;;2.80;1.70;;;24.50;34.40;;;;;;4783089;29;20059;-53
2021/10/24 10:19:31;;;;;;;2.17;1.75;;;24.50;34.30;;;;;;4774652;29;20345;-55
2021/10/24 10:22:26;;;;;;;1.65;1.42;;;24.50;34.20;;;;;;4777961;29;20056;-54
2021/10/24 10:25:02;;;;;;;1.33;1.23;;;24.50;34.10;;;;;;4765209;30;20083;-54
2021/10/24 10:27:39;;;;;;;1.40;1.30;;;24.50;34.10;;;;;;4763948;30;20087;-54
2021/10/24 10:30:15;;;;;;;1.40;1.30;;;24.50;33.90;;;;;;4778175;29;20087;-55
2021/10/24 10:32:45;;;;;;;1.30;1.20;;;24.50;33.80;;;;;;4784867;29;20091;-50
2021/10/24 10:35:17;;;;;;;1.40;1.15;;;24.60;33.80;;;;;;4786730;29;20055;-52
2021/10/24 10:38:04;;;;;;;1.45;1.20;;;24.60;33.70;;;;;;4782927;29;20051;-51
2021/10/24 10:40:41;;;;;;;1.85;1.70;;;24.70;33.70;;;;;;4781543;29;20055;-50
2021/10/24 10:43:13;;;;;;;1.13;1.02;;;24.60;33.50;;;;;;4786574;29;20128;-51
2021/10/24 10:45:46;;;;;;;1.15;1.15;;;24.70;33.50;;;;;;4786536;29;20103;-50
2021/10/24 10:48:41;;;;;;;0.88;0.82;;;24.70;33.40;;;;;;4776290;29;20061;-55
2021/10/24 10:51:23;;;;;;;1.58;1.15;;;24.70;33.30;;;;;;4782867;29;20055;-54
2021/10/24 10:53:56;;;;;;;1.50;1.40;;;24.80;33.30;;;;;;4786605;29;20436;-53
2021/10/24 10:56:45;;;;;;;1.35;1.25;;;24.70;33.30;;;;;;4786165;29;20395;-51
2021/10/24 10:59:28;;;;;;;1.25;1.15;;;24.80;33.30;;;;;;4777272;29;20112;-51
2021/10/24 11:02:15;;;;;;;1.98;1.48;;;24.80;33.20;;;;;;4786212;29;20133;-52
2021/10/24 11:04:50;;;;;;;1.25;1.08;;;24.80;33.20;;;;;;4786125;29;20058;-50
2021/10/24 11:07:39;;;;;;;0.80;0.80;;;24.80;33.10;;;;;;4786178;29;20094;-51
2021/10/24 11:10:27;;;;;;;0.75;0.75;;;24.80;33.00;;;;;;4780354;29;20087;-54
2021/10/24 11:12:55;;;;;;;0.90;0.90;;;24.80;33.00;;;;;;4786133;29;20086;-51
2021/10/24 11:15:28;;;;;;;1.30;1.20;;;24.80;32.90;;;;;;4786226;29;20516;-51
2021/10/24 11:17:59;;;;;;;1.27;0.98;;;24.80;32.90;;;;;;4782269;29;20063;-53
2021/10/24 11:20:41;;;;;;;;;;;24.90;32.90;;;;;;4781135;29;20059;-53
2021/10/24 11:23:13;;;;;;;1.20;1.10;;;24.90;32.80;;;;;;4786131;29;19960;-53
2021/10/24 11:25:50;;;;;;;1.10;1.00;;;24.90;32.80;;;;;;4785645;29;20506;-54
2021/10/24 11:28:20;;;;;;;1.00;0.82;;;24.90;32.70;;;;;;4779164;29;20059;-53
2021/10/24 11:31:00;;;;;;;0.90;0.90;;;24.90;32.70;;;;;;4783132;29;20062;-50
2021/10/24 11:33:43;;;;;;;0.98;0.95;;;24.90;32.70;;;;;;4785729;29;20055;-51
2021/10/24 11:36:10;;;;;;;0.82;0.82;;;24.90;32.60;;;;;;4785765;29;20071;-51
2021/10/24 11:38:38;;;;;;;2.05;1.13;;;24.90;32.50;;;;;;4777400;29;20639;-51
2021/10/24 11:41:17;;;;;;;1.15;0.85;;;24.90;32.50;;;;;;4783085;29;20075;-51
2021/10/24 11:43:45;;;;;;;0.80;0.80;;;24.90;32.50;;;;;;4784576;29;20108;-54
2021/10/24 11:46:12;;;;;;;0.80;0.80;;;24.90;32.40;;;;;;4784804;29;20051;-53
2021/10/24 11:48:41;;;;;;;0.80;0.80;;;24.90;32.30;;;;;;4779521;29;20059;-52
2021/10/24 11:51:12;;;;;;;0.60;0.60;;;24.90;32.20;;;;;;4778114;29;20416;-50
2021/10/24 11:53:46;;;;;;;0.63;0.63;;;24.90;32.20;;;;;;4767840;30;20059;-52
2021/10/24 11:56:22;;;;;;;1.75;1.38;;;25.00;32.20;;;;;;4767696;30;20478;-53
2021/10/24 12:01:39;;;;;;;0.57;0.45;;;25.00;31.90;;;;;;4785697;29;20130;-54
2021/10/24 12:04:10;;;;;;;0.55;0.52;;;25.00;31.80;;;;;;4785216;29;20138;-55
2021/10/24 12:07:04;;;;;;;1.13;0.85;;;25.00;31.80;;;;;;4785209;29;20058;-53
2021/10/24 12:09:35;;;;;;;0.45;0.45;;;25.00;31.70;;;;;;4776086;29;20055;-54
2021/10/24 12:12:23;;;;;;;0.73;0.70;;;25.00;31.60;;;;;;4784025;29;20139;-51
2021/10/24 12:14:58;;;;;;;0.60;0.60;;;25.00;31.50;;;;;;4785008;29;20051;-52
2021/10/24 12:17:34;;;;;;;0.70;0.60;;;25.10;31.50;;;;;;4783274;29;20115;-49
2021/10/24 12:20:29;;;;;;;0.70;0.50;;;25.10;31.50;;;;;;4779488;29;20422;-54
2021/10/24 12:23:02;;;;;;;0.52;0.50;;;25.10;31.50;;;;;;4784508;29;20047;-54
2021/10/24 12:25:38;;;;;;;0.60;0.43;;;25.10;31.40;;;;;;4785042;29;20090;-49
2021/10/24 12:28:21;;;;;;;1.27;0.38;;;25.10;31.40;;;;;;4781448;29;20150;-55
2021/10/24 12:30:57;;;;;;;0.60;0.60;;;25.10;31.40;;;;;;4781379;29;20067;-52
2021/10/24 12:33:39;;;;;;;0.82;0.80;;;25.10;31.40;;;;;;4784745;29;20055;-54
2021/10/24 12:36:09;;;;;;;0.50;0.40;;;25.10;31.30;;;;;;4783683;29;20090;-52
2021/10/24 12:38:57;;;;;;;0.60;0.60;;;25.10;31.30;;;;;;4778635;29;20699;-52
2021/10/24 12:41:44;;;;;;;0.50;0.50;;;25.10;31.20;;;;;;4784453;29;20102;-54
2021/10/24 12:44:31;;;;;;;0.75;0.57;;;25.10;31.20;;;;;;4784847;29;20452;-54
2021/10/24 12:47:00;;;;;;;0.50;0.50;;;25.10;31.10;;;;;;4784334;29;20417;-53
2021/10/24 12:49:32;;;;;;;0.43;0.43;;;25.10;31.10;;;;;;4770913;29;20128;-52
2021/10/24 12:52:14;;;;;;;0.60;0.60;;;25.10;31.10;;;;;;4766291;30;20113;-52
2021/10/24 12:54:45;;;;;;;1.27;0.60;;;25.10;31.10;;;;;;4766391;30;20064;-53
2021/10/24 12:57:12;;;;;;;0.40;0.40;;;25.10;31.00;;;;;;4766660;30;20060;-51
2021/10/24 12:59:39;;;;;;;0.55;0.40;;;25.10;31.00;;;;;;4772234;30;20059;-54
2021/10/24 13:02:10;;;;;;;0.45;0.45;;;25.10;31.00;;;;;;4781433;29;20055;-52
2021/10/24 13:04:38;;;;;;;0.40;0.40;;;25.10;30.90;;;;;;4782005;29;20059;-53
2021/10/24 13:07:05;;;;;;;0.30;0.30;;;25.10;30.90;;;;;;4783345;29;20139;-54